sensor_id;sensor_type;location;lat;lon;timestamp;pressure;altitude;pressure_sealevel;temperature;humidity
74544;BME280;63016;55.030;38.710;2022-11-20T00:02:15;99959.72;;;0.53;65.58
74544;BME280;63016;55.030;38.710;2022-11-20T00:04:41;99960.44;;;0.55;65.09
74544;BME280;63016;55.030;38.710;2022-11-20T00:07:06;99962.19;;;0.55;65.31
74544;BME280;63016;55.030;38.710;2022-11-20T00:09:33;99967.22;;;0.56;65.89
74544;BME280;63016;55.030;38.710;2022-11-20T00:11:59;99956.31;;;0.52;65.06
74544;BME280;63016;55.030;38.710;2022-11-20T00:14:24;99956.03;;;0.57;65.46
74544;BME280;63016;55.030;38.710;2022-11-20T00:16:50;99964.66;;;0.56;65.17
74544;BME280;63016;55.030;38.710;2022-11-20T00:19:15;99958.59;;;0.57;65.70
74544;BME280;63016;55.030;38.710;2022-11-20T00:21:41;99958.59;;;0.57;65.86
74544;BME280;63016;55.030;38.710;2022-11-20T00:24:08;99955.13;;;0.58;64.99
74544;BME280;63016;55.030;38.710;2022-11-20T00:26:34;99953.28;;;0.60;65.91
74544;BME280;63016;55.030;38.710;2022-11-20T00:29:01;99956.66;;;0.61;65.71
74544;BME280;63016;55.030;38.710;2022-11-20T00:31:27;99955.72;;;0.62;65.52
74544;BME280;63016;55.030;38.710;2022-11-20T00:33:53;99956.53;;;0.62;65.82
74544;BME280;63016;55.030;38.710;2022-11-20T00:36:21;99952.03;;;0.66;65.65
74544;BME280;63016;55.030;38.710;2022-11-20T00:38:47;99959.75;;;0.66;65.44
74544;BME280;63016;55.030;38.710;2022-11-20T00:41:15;99954.50;;;0.67;65.43
74544;BME280;63016;55.030;38.710;2022-11-20T00:43:41;99959.03;;;0.64;65.62
74544;BME280;63016;55.030;38.710;2022-11-20T00:46:11;99958.81;;;0.67;65.79
74544;BME280;63016;55.030;38.710;2022-11-20T00:48:37;99965.41;;;0.71;65.53
74544;BME280;63016;55.030;38.710;2022-11-20T00:51:04;99962.72;;;0.72;65.44
74544;BME280;63016;55.030;38.710;2022-11-20T00:53:30;99962.72;;;0.72;65.18
74544;BME280;63016;55.030;38.710;2022-11-20T00:56:01;99961.81;;;0.73;65.36
74544;BME280;63016;55.030;38.710;2022-11-20T00:58:36;99971.97;;;0.75;65.42
74544;BME280;63016;55.030;38.710;2022-11-20T01:03:31;99976.19;;;0.76;65.16
74544;BME280;63016;55.030;38.710;2022-11-20T01:06:06;99968.28;;;0.79;65.75
74544;BME280;63016;55.030;38.710;2022-11-20T01:08:33;99969.09;;;0.80;65.62
74544;BME280;63016;55.030;38.710;2022-11-20T01:11:01;99974.13;;;0.81;65.22
74544;BME280;63016;55.030;38.710;2022-11-20T01:13:27;99964.69;;;0.82;65.42
74544;BME280;63016;55.030;38.710;2022-11-20T01:16:16;99970.56;;;0.84;65.29
74544;BME280;63016;55.030;38.710;2022-11-20T01:18:44;99968.91;;;0.83;65.94
74544;BME280;63016;55.030;38.710;2022-11-20T01:21:18;99968.00;;;0.84;65.60
74544;BME280;63016;55.030;38.710;2022-11-20T01:23:44;99973.00;;;0.85;65.80
74544;BME280;63016;55.030;38.710;2022-11-20T01:26:14;99971.25;;;0.86;65.84
74544;BME280;63016;55.030;38.710;2022-11-20T01:28:40;99978.97;;;0.86;65.29
74544;BME280;63016;55.030;38.710;2022-11-20T01:33:43;99984.94;;;0.86;66.00
74544;BME280;63016;55.030;38.710;2022-11-20T01:36:10;99978.88;;;0.87;65.53
74544;BME280;63016;55.030;38.710;2022-11-20T01:38:36;99985.56;;;0.90;65.51
74544;BME280;63016;55.030;38.710;2022-11-20T01:41:01;99981.13;;;0.92;65.91
74544;BME280;63016;55.030;38.710;2022-11-20T01:43:27;99979.41;;;0.92;65.68
74544;BME280;63016;55.030;38.710;2022-11-20T01:46:19;99982.69;;;0.94;64.97
74544;BME280;63016;55.030;38.710;2022-11-20T01:51:33;99980.13;;;0.94;65.12
74544;BME280;63016;55.030;38.710;2022-11-20T01:54:03;99986.19;;;0.93;65.65
74544;BME280;63016;55.030;38.710;2022-11-20T01:56:34;99992.13;;;0.94;65.66
74544;BME280;63016;55.030;38.710;2022-11-20T01:59:04;99994.50;;;0.97;65.34
74544;BME280;63016;55.030;38.710;2022-11-20T02:01:31;99996.16;;;0.98;65.49
74544;BME280;63016;55.030;38.710;2022-11-20T02:03:57;99999.66;;;0.97;65.77
74544;BME280;63016;55.030;38.710;2022-11-20T02:06:25;99996.16;;;0.98;65.28
74544;BME280;63016;55.030;38.710;2022-11-20T02:08:54;100006.22;;;1.01;65.23
74544;BME280;63016;55.030;38.710;2022-11-20T02:11:20;99997.69;;;1.00;65.47
74544;BME280;63016;55.030;38.710;2022-11-20T02:13:46;99999.44;;;1.00;65.99
74544;BME280;63016;55.030;38.710;2022-11-20T02:16:22;100002.81;;;1.00;65.73
74544;BME280;63016;55.030;38.710;2022-11-20T02:18:49;100004.69;;;0.98;65.70
74544;BME280;63016;55.030;38.710;2022-11-20T02:21:27;100011.28;;;1.02;65.79
74544;BME280;63016;55.030;38.710;2022-11-20T02:26:26;100013.91;;;1.01;65.75
74544;BME280;63016;55.030;38.710;2022-11-20T02:28:53;100020.72;;;1.02;65.59
74544;BME280;63016;55.030;38.710;2022-11-20T02:31:19;100012.28;;;1.00;65.69
74544;BME280;63016;55.030;38.710;2022-11-20T02:33:45;100019.06;;;1.01;65.31
74544;BME280;63016;55.030;38.710;2022-11-20T02:36:14;100018.16;;;1.02;65.85
74544;BME280;63016;55.030;38.710;2022-11-20T02:38:41;100012.16;;;1.01;65.21
74544;BME280;63016;55.030;38.710;2022-11-20T02:41:08;100015.66;;;1.00;65.81
74544;BME280;63016;55.030;38.710;2022-11-20T02:43:33;100019.88;;;1.01;65.53
74544;BME280;63016;55.030;38.710;2022-11-20T02:45:59;100024.13;;;1.02;65.74
74544;BME280;63016;55.030;38.710;2022-11-20T02:48:24;100030.78;;;1.05;66.03
74544;BME280;63016;55.030;38.710;2022-11-20T02:50:50;100018.88;;;1.04;65.30
74544;BME280;63016;55.030;38.710;2022-11-20T02:53:15;100024.72;;;1.06;65.68
74544;BME280;63016;55.030;38.710;2022-11-20T02:55:41;100032.41;;;1.06;65.36
74544;BME280;63016;55.030;38.710;2022-11-20T02:58:06;100034.28;;;1.04;65.69
74544;BME280;63016;55.030;38.710;2022-11-20T03:00:32;100022.13;;;1.06;65.03
74544;BME280;63016;55.030;38.710;2022-11-20T03:02:58;100027.28;;;1.06;65.54
74544;BME280;63016;55.030;38.710;2022-11-20T03:05:24;100021.25;;;1.07;65.53
74544;BME280;63016;55.030;38.710;2022-11-20T03:07:49;100028.22;;;1.05;65.86
74544;BME280;63016;55.030;38.710;2022-11-20T03:10:15;100037.56;;;1.06;65.74
74544;BME280;63016;55.030;38.710;2022-11-20T03:12:40;100033.28;;;1.07;65.15
74544;BME280;63016;55.030;38.710;2022-11-20T03:15:06;100029.78;;;1.08;65.79
74544;BME280;63016;55.030;38.710;2022-11-20T03:17:32;100036.53;;;1.09;65.81
74544;BME280;63016;55.030;38.710;2022-11-20T03:19:58;100037.38;;;1.09;65.93
74544;BME280;63016;55.030;38.710;2022-11-20T03:22:23;100051.03;;;1.10;66.01
74544;BME280;63016;55.030;38.710;2022-11-20T03:24:49;100050.09;;;1.11;66.04
74544;BME280;63016;55.030;38.710;2022-11-20T03:27:14;100056.91;;;1.12;65.24
74544;BME280;63016;55.030;38.710;2022-11-20T03:29:40;100049.09;;;1.13;66.07
74544;BME280;63016;55.030;38.710;2022-11-20T03:32:05;100050.91;;;1.11;65.19
74544;BME280;63016;55.030;38.710;2022-11-20T03:34:31;100057.72;;;1.12;65.85
74544;BME280;63016;55.030;38.710;2022-11-20T03:36:56;100056.91;;;1.12;65.83
74544;BME280;63016;55.030;38.710;2022-11-20T03:39:22;100051.84;;;1.10;65.27
74544;BME280;63016;55.030;38.710;2022-11-20T03:41:47;100055.06;;;1.14;65.79
74544;BME280;63016;55.030;38.710;2022-11-20T03:44:13;100055.97;;;1.13;65.47
74544;BME280;63016;55.030;38.710;2022-11-20T03:46:38;100063.47;;;1.16;65.69
74544;BME280;63016;55.030;38.710;2022-11-20T03:49:04;100064.41;;;1.15;65.73
74544;BME280;63016;55.030;38.710;2022-11-20T03:51:35;100056.69;;;1.15;65.94
74544;BME280;63016;55.030;38.710;2022-11-20T03:54:04;100062.66;;;1.15;65.45
74544;BME280;63016;55.030;38.710;2022-11-20T03:56:32;100065.13;;;1.17;65.93
74544;BME280;63016;55.030;38.710;2022-11-20T03:58:58;100066.88;;;1.16;65.67
74544;BME280;63016;55.030;38.710;2022-11-20T04:01:26;100062.66;;;1.15;65.54
74544;BME280;63016;55.030;38.710;2022-11-20T04:03:53;100065.13;;;1.17;65.37
74544;BME280;63016;55.030;38.710;2022-11-20T04:06:22;100064.22;;;1.18;66.05
74544;BME280;63016;55.030;38.710;2022-11-20T04:08:49;100065.97;;;1.17;65.88
74544;BME280;63016;55.030;38.710;2022-11-20T04:11:22;100068.41;;;1.19;65.36
74544;BME280;63016;55.030;38.710;2022-11-20T04:13:51;100078.81;;;1.17;65.67
74544;BME280;63016;55.030;38.710;2022-11-20T04:16:18;100068.59;;;1.16;65.59
74544;BME280;63016;55.030;38.710;2022-11-20T04:18:44;100073.66;;;1.17;65.56
74544;BME280;63016;55.030;38.710;2022-11-20T04:21:10;100081.38;;;1.17;65.97
74544;BME280;63016;55.030;38.710;2022-11-20T04:23:36;100088.03;;;1.20;65.72
74544;BME280;63016;55.030;38.710;2022-11-20T04:26:08;100094.81;;;1.21;66.10
74544;BME280;63016;55.030;38.710;2022-11-20T04:28:34;100096.56;;;1.20;65.96
74544;BME280;63016;55.030;38.710;2022-11-20T04:31:13;100096.78;;;1.17;65.58
74544;BME280;63016;55.030;38.710;2022-11-20T04:33:39;100096.56;;;1.20;66.11
74544;BME280;63016;55.030;38.710;2022-11-20T04:36:16;100091.44;;;1.20;65.85
74544;BME280;63016;55.030;38.710;2022-11-20T04:38:42;100092.38;;;1.19;66.07
74544;BME280;63016;55.030;38.710;2022-11-20T04:41:14;100089.69;;;1.21;65.89
74544;BME280;63016;55.030;38.710;2022-11-20T04:43:40;100093.19;;;1.20;65.65
74544;BME280;63016;55.030;38.710;2022-11-20T04:46:06;100097.41;;;1.21;65.28
74544;BME280;63016;55.030;38.710;2022-11-20T04:48:31;100105.97;;;1.21;65.67
74544;BME280;63016;55.030;38.710;2022-11-20T04:50:57;100112.00;;;1.20;65.17
74544;BME280;63016;55.030;38.710;2022-11-20T04:53:23;100121.47;;;1.20;65.55
74544;BME280;63016;55.030;38.710;2022-11-20T04:55:49;100127.53;;;1.19;65.80
74544;BME280;63016;55.030;38.710;2022-11-20T04:58:16;100128.34;;;1.19;66.00
74544;BME280;63016;55.030;38.710;2022-11-20T05:00:42;100134.41;;;1.18;66.00
74544;BME280;63016;55.030;38.710;2022-11-20T05:03:07;100131.84;;;1.18;65.35
74544;BME280;63016;55.030;38.710;2022-11-20T05:05:34;100138.09;;;1.14;65.74
74544;BME280;63016;55.030;38.710;2022-11-20T05:08:00;100128.56;;;1.16;65.83
74544;BME280;63016;55.030;38.710;2022-11-20T05:10:26;100153.41;;;1.16;65.63
74544;BME280;63016;55.030;38.710;2022-11-20T05:12:52;100157.66;;;1.17;65.84
74544;BME280;63016;55.030;38.710;2022-11-20T05:15:18;100180.69;;;1.18;66.01
74544;BME280;63016;55.030;38.710;2022-11-20T05:17:50;100168.84;;;1.16;65.64
74544;BME280;63016;55.030;38.710;2022-11-20T05:20:16;100176.47;;;1.17;65.79
74544;BME280;63016;55.030;38.710;2022-11-20T05:22:43;100172.03;;;1.19;65.78
74544;BME280;63016;55.030;38.710;2022-11-20T05:25:10;100167.81;;;1.18;65.16
74544;BME280;63016;55.030;38.710;2022-11-20T05:27:35;100175.72;;;1.15;65.35
74544;BME280;63016;55.030;38.710;2022-11-20T05:30:02;100186.00;;;1.15;65.16
74544;BME280;63016;55.030;38.710;2022-11-20T05:32:27;100172.63;;;1.10;65.54
74544;BME280;63016;55.030;38.710;2022-11-20T05:34:53;100184.38;;;1.14;65.80
74544;BME280;63016;55.030;38.710;2022-11-20T05:37:18;100182.72;;;1.13;65.42
74544;BME280;63016;55.030;38.710;2022-11-20T05:39:44;100192.19;;;1.13;65.84
74544;BME280;63016;55.030;38.710;2022-11-20T05:42:09;100200.59;;;1.15;65.29
74544;BME280;63016;55.030;38.710;2022-11-20T05:44:53;100194.63;;;1.14;65.72
74544;BME280;63016;55.030;38.710;2022-11-20T05:47:19;100197.84;;;1.18;65.63
74544;BME280;63016;55.030;38.710;2022-11-20T05:49:44;100205.44;;;1.19;65.41
74544;BME280;63016;55.030;38.710;2022-11-20T05:52:10;100208.84;;;1.20;65.33
74544;BME280;63016;55.030;38.710;2022-11-20T05:54:35;100205.34;;;1.21;66.02
74544;BME280;63016;55.030;38.710;2022-11-20T05:57:01;100211.34;;;1.21;65.82
74544;BME280;63016;55.030;38.710;2022-11-20T05:59:26;100212.16;;;1.22;65.92
74544;BME280;63016;55.030;38.710;2022-11-20T06:01:52;100214.91;;;1.19;66.10
74544;BME280;63016;55.030;38.710;2022-11-20T06:04:18;100221.63;;;1.21;65.90
74544;BME280;63016;55.030;38.710;2022-11-20T06:06:43;100226.53;;;1.24;65.67
74544;BME280;63016;55.030;38.710;2022-11-20T06:09:09;100227.28;;;1.26;65.54
74544;BME280;63016;55.030;38.710;2022-11-20T06:11:34;100234.78;;;1.29;65.60
74544;BME280;63016;55.030;38.710;2022-11-20T06:14:00;100242.41;;;1.31;65.89
74544;BME280;63016;55.030;38.710;2022-11-20T06:16:25;100248.28;;;1.33;65.76
74544;BME280;63016;55.030;38.710;2022-11-20T06:18:51;100248.16;;;1.35;65.82
74544;BME280;63016;55.030;38.710;2022-11-20T06:21:19;100259.19;;;1.37;66.01
74544;BME280;63016;55.030;38.710;2022-11-20T06:23:46;100260.84;;;1.38;65.62
74544;BME280;63016;55.030;38.710;2022-11-20T06:26:19;100256.50;;;1.38;66.04
74544;BME280;63016;55.030;38.710;2022-11-20T06:28:45;100259.72;;;1.42;66.24
74544;BME280;63016;55.030;38.710;2022-11-20T06:31:13;100259.72;;;1.42;65.90
74544;BME280;63016;55.030;38.710;2022-11-20T06:33:40;100260.53;;;1.42;65.56
74544;BME280;63016;55.030;38.710;2022-11-20T06:36:06;100258.78;;;1.43;65.80
74544;BME280;63016;55.030;38.710;2022-11-20T06:38:31;100257.03;;;1.43;65.56
74544;BME280;63016;55.030;38.710;2022-11-20T06:40:57;100262.06;;;1.45;65.39
74544;BME280;63016;55.030;38.710;2022-11-20T06:43:23;100257.78;;;1.45;65.72
74544;BME280;63016;55.030;38.710;2022-11-20T06:45:53;100250.06;;;1.45;65.77
74544;BME280;63016;55.030;38.710;2022-11-20T06:48:18;100241.31;;;1.48;66.21
74544;BME280;63016;55.030;38.710;2022-11-20T06:50:44;100247.91;;;1.52;66.13
74544;BME280;63016;55.030;38.710;2022-11-20T06:53:10;100245.06;;;1.57;66.66
74544;BME280;63016;55.030;38.710;2022-11-20T06:55:35;100246.59;;;1.59;66.07
74544;BME280;63016;55.030;38.710;2022-11-20T06:58:00;100255.75;;;1.63;65.83
74544;BME280;63016;55.030;38.710;2022-11-20T07:00:26;100246.41;;;1.62;65.99
74544;BME280;63016;55.030;38.710;2022-11-20T07:02:52;100246.22;;;1.65;66.35
74544;BME280;63016;55.030;38.710;2022-11-20T07:05:17;100247.84;;;1.66;66.40
74544;BME280;63016;55.030;38.710;2022-11-20T07:07:43;100240.03;;;1.68;66.22
74544;BME280;63016;55.030;38.710;2022-11-20T07:10:09;100250.75;;;1.74;65.91
74544;BME280;63016;55.030;38.710;2022-11-20T07:12:35;100261.66;;;1.78;65.57
74544;BME280;63016;55.030;38.710;2022-11-20T07:15:00;100263.31;;;1.79;66.29
74544;BME280;63016;55.030;38.710;2022-11-20T07:17:26;100266.72;;;1.79;66.04
74544;BME280;63016;55.030;38.710;2022-11-20T07:19:52;100269.19;;;1.81;66.02
74544;BME280;63016;55.030;38.710;2022-11-20T07:22:17;100272.38;;;1.85;66.71
74544;BME280;63016;55.030;38.710;2022-11-20T07:24:43;100285.78;;;1.90;66.78
74544;BME280;63016;55.030;38.710;2022-11-20T07:27:08;100282.06;;;1.94;66.61
74544;BME280;63016;55.030;38.710;2022-11-20T07:29:34;100285.34;;;1.96;66.73
74544;BME280;63016;55.030;38.710;2022-11-20T07:31:59;100287.44;;;2.03;65.92
74544;BME280;63016;55.030;38.710;2022-11-20T07:34:25;100293.94;;;2.09;66.08
74544;BME280;63016;55.030;38.710;2022-11-20T07:36:50;100294.44;;;2.14;66.11
74544;BME280;63016;55.030;38.710;2022-11-20T07:39:16;100289.19;;;2.16;66.27
74544;BME280;63016;55.030;38.710;2022-11-20T07:41:41;100292.16;;;2.22;66.15
74544;BME280;63016;55.030;38.710;2022-11-20T07:44:07;100287.88;;;2.23;66.19
74544;BME280;63016;55.030;38.710;2022-11-20T07:46:32;100296.91;;;2.28;66.68
74544;BME280;63016;55.030;38.710;2022-11-20T07:48:58;100291.56;;;2.31;66.26
74544;BME280;63016;55.030;38.710;2022-11-20T07:51:23;100277.66;;;2.34;66.08
74544;BME280;63016;55.030;38.710;2022-11-20T07:53:52;100273.03;;;2.39;66.34
74544;BME280;63016;55.030;38.710;2022-11-20T07:56:17;100281.44;;;2.41;66.10
74544;BME280;63016;55.030;38.710;2022-11-20T07:58:43;100291.38;;;2.47;65.79
74544;BME280;63016;55.030;38.710;2022-11-20T08:01:09;100288.78;;;2.47;65.98
74544;BME280;63016;55.030;38.710;2022-11-20T08:03:34;100299.50;;;2.54;66.22
74544;BME280;63016;55.030;38.710;2022-11-20T08:06:03;100307.03;;;2.57;66.25
74544;BME280;63016;55.030;38.710;2022-11-20T08:08:29;100312.06;;;2.58;66.36
74544;BME280;63016;55.030;38.710;2022-11-20T08:10:57;100310.81;;;2.64;66.03
74544;BME280;63016;55.030;38.710;2022-11-20T08:13:43;100314.72;;;2.70;65.92
74544;BME280;63016;55.030;38.710;2022-11-20T08:16:26;100321.44;;;2.72;66.04
74544;BME280;63016;55.030;38.710;2022-11-20T08:18:52;100325.66;;;2.73;65.96
74544;BME280;63016;55.030;38.710;2022-11-20T08:21:17;100336.56;;;2.77;66.42
74544;BME280;63016;55.030;38.710;2022-11-20T08:23:43;100328.72;;;2.78;65.84
74544;BME280;63016;55.030;38.710;2022-11-20T08:26:09;100325.13;;;2.81;66.18
74544;BME280;63016;55.030;38.710;2022-11-20T08:28:35;100322.44;;;2.82;65.79
74544;BME280;63016;55.030;38.710;2022-11-20T08:31:01;100326.66;;;2.83;66.01
74544;BME280;63016;55.030;38.710;2022-11-20T08:33:28;100326.66;;;2.83;65.97
74544;BME280;63016;55.030;38.710;2022-11-20T08:35:53;100332.44;;;2.87;66.15
74544;BME280;63016;55.030;38.710;2022-11-20T08:38:19;100329.97;;;2.86;66.37
74544;BME280;63016;55.030;38.710;2022-11-20T08:40:44;100328.91;;;2.88;65.98
74544;BME280;63016;55.030;38.710;2022-11-20T08:43:30;100339.13;;;2.90;66.51
74544;BME280;63016;55.030;38.710;2022-11-20T08:45:56;100350.88;;;2.94;66.14
74544;BME280;63016;55.030;38.710;2022-11-20T08:48:22;100355.00;;;2.96;66.43
74544;BME280;63016;55.030;38.710;2022-11-20T08:50:48;100355.00;;;2.96;66.01
74544;BME280;63016;55.030;38.710;2022-11-20T08:53:13;100355.63;;;3.00;66.54
74544;BME280;63016;55.030;38.710;2022-11-20T08:55:39;100357.97;;;3.03;66.29
74544;BME280;63016;55.030;38.710;2022-11-20T08:58:05;100357.03;;;3.04;66.25
74544;BME280;63016;55.030;38.710;2022-11-20T09:00:32;100364.69;;;3.05;66.30
74544;BME280;63016;55.030;38.710;2022-11-20T09:02:57;100377.47;;;3.07;66.24
74544;BME280;63016;55.030;38.710;2022-11-20T09:05:24;100374.69;;;3.10;66.64
74544;BME280;63016;55.030;38.710;2022-11-20T09:07:49;100366.72;;;3.13;66.30
74544;BME280;63016;55.030;38.710;2022-11-20T09:10:15;100372.59;;;3.15;66.46
74544;BME280;63016;55.030;38.710;2022-11-20T09:12:41;100378.47;;;3.17;66.24
74544;BME280;63016;55.030;38.710;2022-11-20T09:15:07;100376.72;;;3.18;66.50
74544;BME280;63016;55.030;38.710;2022-11-20T09:17:32;100361.97;;;3.20;66.12
74544;BME280;63016;55.030;38.710;2022-11-20T09:19:59;100361.16;;;3.19;66.20
74544;BME280;63016;55.030;38.710;2022-11-20T09:22:25;100363.50;;;3.22;66.00
74544;BME280;63016;55.030;38.710;2022-11-20T09:24:50;100375.56;;;3.22;66.36
74544;BME280;63016;55.030;38.710;2022-11-20T09:27:16;100397.53;;;3.27;66.54
74544;BME280;63016;55.030;38.710;2022-11-20T09:29:48;100395.69;;;3.29;66.55
74544;BME280;63016;55.030;38.710;2022-11-20T09:32:13;100402.47;;;3.30;66.09
74544;BME280;63016;55.030;38.710;2022-11-20T09:34:39;100394.75;;;3.30;66.09
74544;BME280;63016;55.030;38.710;2022-11-20T09:37:05;100404.94;;;3.32;66.11
74544;BME280;63016;55.030;38.710;2022-11-20T09:39:30;100418.06;;;3.29;66.14
74544;BME280;63016;55.030;38.710;2022-11-20T09:42:04;100413.31;;;3.35;66.47
74544;BME280;63016;55.030;38.710;2022-11-20T09:44:54;100412.38;;;3.37;66.14
74544;BME280;63016;55.030;38.710;2022-11-20T09:55:19;100426.00;;;3.39;65.71
74544;BME280;63016;55.030;38.710;2022-11-20T09:57:47;100426.31;;;3.34;66.01
74544;BME280;63016;55.030;38.710;2022-11-20T10:00:15;100434.13;;;3.32;66.12
74544;BME280;63016;55.030;38.710;2022-11-20T10:03:19;100429.91;;;3.31;66.04
74544;BME280;63016;55.030;38.710;2022-11-20T10:05:49;100441.06;;;3.32;66.35
74544;BME280;63016;55.030;38.710;2022-11-20T10:08:22;100434.13;;;3.32;65.97
74544;BME280;63016;55.030;38.710;2022-11-20T10:21:59;100439.22;;;3.34;66.36
74544;BME280;63016;55.030;38.710;2022-11-20T10:24:34;100438.47;;;3.32;66.23
74544;BME280;63016;55.030;38.710;2022-11-20T10:27:29;100440.34;;;3.30;66.00
74544;BME280;63016;55.030;38.710;2022-11-20T10:32:41;100451.41;;;3.19;65.74
74544;BME280;63016;55.030;38.710;2022-11-20T10:37:44;100445.94;;;3.11;65.75
74544;BME280;63016;55.030;38.710;2022-11-20T10:40:20;100458.09;;;3.09;65.78
74544;BME280;63016;55.030;38.710;2022-11-20T10:42:52;100450.78;;;3.03;66.12
74544;BME280;63016;55.030;38.710;2022-11-20T10:47:54;100463.16;;;2.98;65.92
74544;BME280;63016;55.030;38.710;2022-11-20T10:50:22;100462.44;;;2.96;65.92
74544;BME280;63016;55.030;38.710;2022-11-20T10:55:33;100468.72;;;2.92;66.26
74544;BME280;63016;55.030;38.710;2022-11-20T11:00:24;100467.97;;;2.90;65.96
74544;BME280;63016;55.030;38.710;2022-11-20T11:02:51;100480.16;;;2.88;66.03
74544;BME280;63016;55.030;38.710;2022-11-20T11:08:01;100476.00;;;2.85;66.27
74544;BME280;63016;55.030;38.710;2022-11-20T11:11:02;100469.31;;;2.82;65.56
74544;BME280;63016;55.030;38.710;2022-11-20T11:13:33;100468.00;;;2.77;65.25
74544;BME280;63016;55.030;38.710;2022-11-20T11:15:58;100472.63;;;2.72;65.31
74544;BME280;63016;55.030;38.710;2022-11-20T11:18:32;100470.44;;;2.66;65.16
74544;BME280;63016;55.030;38.710;2022-11-20T11:21:00;100480.31;;;2.59;65.32
74544;BME280;63016;55.030;38.710;2022-11-20T11:23:37;100483.31;;;2.53;65.60
74544;BME280;63016;55.030;38.710;2022-11-20T11:26:06;100485.13;;;2.51;67.31
74544;BME280;63016;55.030;38.710;2022-11-20T11:28:33;100494.03;;;2.60;67.20
74544;BME280;63016;55.030;38.710;2022-11-20T11:30:58;100489.50;;;2.63;66.40
74544;BME280;63016;55.030;38.710;2022-11-20T11:33:27;100480.22;;;2.61;65.89
74544;BME280;63016;55.030;38.710;2022-11-20T11:38:36;100481.44;;;2.55;65.92
74544;BME280;63016;55.030;38.710;2022-11-20T11:41:08;100488.75;;;2.48;66.02
74544;BME280;63016;55.030;38.710;2022-11-20T11:43:36;100489.75;;;2.46;65.93
74544;BME280;63016;55.030;38.710;2022-11-20T11:51:22;100477.56;;;2.35;65.65
74544;BME280;63016;55.030;38.710;2022-11-20T11:53:49;100473.47;;;2.33;65.58
74544;BME280;63016;55.030;38.710;2022-11-20T11:56:16;100462.81;;;2.24;65.30
74544;BME280;63016;55.030;38.710;2022-11-20T11:58:45;100472.00;;;2.28;66.16
74544;BME280;63016;55.030;38.710;2022-11-20T12:03:46;100497.13;;;2.25;65.42
74544;BME280;63016;55.030;38.710;2022-11-20T12:06:17;100495.53;;;2.22;65.94
74544;BME280;63016;55.030;38.710;2022-11-20T12:11:29;100494.84;;;2.20;66.24
74544;BME280;63016;55.030;38.710;2022-11-20T12:14:01;100503.47;;;2.19;65.97
74544;BME280;63016;55.030;38.710;2022-11-20T12:16:33;100495.75;;;2.19;66.41
74544;BME280;63016;55.030;38.710;2022-11-20T12:19:00;100492.44;;;2.17;65.78
74544;BME280;63016;55.030;38.710;2022-11-20T12:27:24;100513.88;;;2.18;65.38
74544;BME280;63016;55.030;38.710;2022-11-20T12:30:16;100508.91;;;2.15;65.63
74544;BME280;63016;55.030;38.710;2022-11-20T12:32:55;100510.84;;;2.11;65.76
74544;BME280;63016;55.030;38.710;2022-11-20T12:38:51;100505.06;;;2.08;65.75
74544;BME280;63016;55.030;38.710;2022-11-20T12:49:50;100505.81;;;2.10;65.85
74544;BME280;63016;55.030;38.710;2022-11-20T12:52:35;100496.44;;;2.09;66.24
74544;BME280;63016;55.030;38.710;2022-11-20T12:58:14;100502.59;;;2.06;65.98
74544;BME280;63016;55.030;38.710;2022-11-20T13:00:56;100507.91;;;2.03;65.44
74544;BME280;63016;55.030;38.710;2022-11-20T13:03:34;100510.72;;;2.00;65.75
74544;BME280;63016;55.030;38.710;2022-11-20T13:08:36;100525.06;;;1.90;65.56
74544;BME280;63016;55.030;38.710;2022-11-20T13:11:08;100528.47;;;1.90;65.60
74544;BME280;63016;55.030;38.710;2022-11-20T13:16:47;100538.94;;;1.87;65.52
74544;BME280;63016;55.030;38.710;2022-11-20T13:19:16;100534.88;;;1.83;65.66
74544;BME280;63016;55.030;38.710;2022-11-20T13:21:45;100531.88;;;1.76;65.97
74544;BME280;63016;55.030;38.710;2022-11-20T13:24:21;100547.03;;;1.81;65.36
74544;BME280;63016;55.030;38.710;2022-11-20T13:29:30;100539.97;;;1.70;65.11
74544;BME280;63016;55.030;38.710;2022-11-20T13:32:11;100551.00;;;1.72;66.00
74544;BME280;63016;55.030;38.710;2022-11-20T13:34:39;100553.66;;;1.71;65.60
74544;BME280;63016;55.030;38.710;2022-11-20T13:37:26;100545.19;;;1.69;65.80
74544;BME280;63016;55.030;38.710;2022-11-20T13:39:52;100546.38;;;1.63;65.60
74544;BME280;63016;55.030;38.710;2022-11-20T13:42:20;100556.50;;;1.66;66.25
74544;BME280;63016;55.030;38.710;2022-11-20T13:45:01;100535.94;;;1.66;65.38
74544;BME280;63016;55.030;38.710;2022-11-20T13:47:28;100530.03;;;1.64;65.35
74544;BME280;63016;55.030;38.710;2022-11-20T13:49:58;100544.56;;;1.65;65.92
74544;BME280;63016;55.030;38.710;2022-11-20T13:52:43;100553.19;;;1.64;65.11
74544;BME280;63016;55.030;38.710;2022-11-20T13:55:37;100536.22;;;1.62;65.42
74544;BME280;63016;55.030;38.710;2022-11-20T13:58:27;100555.03;;;1.62;65.58
74544;BME280;63016;55.030;38.710;2022-11-20T14:03:33;100553.75;;;1.55;65.66
74544;BME280;63016;55.030;38.710;2022-11-20T14:06:02;100561.47;;;1.55;65.15
74544;BME280;63016;55.030;38.710;2022-11-20T14:08:42;100563.69;;;1.61;66.66
74544;BME280;63016;55.030;38.710;2022-11-20T14:11:29;100568.34;;;1.69;66.03
74544;BME280;63016;55.030;38.710;2022-11-20T14:16:36;100587.22;;;1.69;65.96
74544;BME280;63016;55.030;38.710;2022-11-20T14:19:28;100588.56;;;1.75;66.10
74544;BME280;63016;55.030;38.710;2022-11-20T14:22:19;100585.09;;;1.76;66.54
74544;BME280;63016;55.030;38.710;2022-11-20T14:24:46;100597.13;;;1.75;65.83
74544;BME280;63016;55.030;38.710;2022-11-20T14:27:14;100591.97;;;1.75;66.47
74544;BME280;63016;55.030;38.710;2022-11-20T14:29:41;100586.19;;;1.72;66.05
74544;BME280;63016;55.030;38.710;2022-11-20T14:32:09;100584.53;;;1.71;65.44
74544;BME280;63016;55.030;38.710;2022-11-20T14:34:39;100585.47;;;1.70;65.36